createdAt,value
2019-02-04T00:00:03.498Z,39.03
2019-02-04T00:02:33.920Z,43.00
2019-02-04T00:05:03.765Z,42.00
2019-02-04T00:07:32.643Z,39.80
2019-02-04T00:10:01.474Z,35.03
2019-02-04T00:12:31.557Z,39.73
2019-02-04T00:15:00.464Z,36.10
2019-02-04T00:17:29.328Z,34.07
2019-02-04T00:19:58.315Z,33.67
2019-02-04T00:22:27.123Z,36.53
2019-02-04T00:24:55.933Z,37.10
2019-02-04T00:27:24.776Z,33.17
2019-02-04T00:29:53.595Z,36.50
2019-02-04T00:32:22.390Z,35.60
2019-02-04T00:34:51.210Z,34.53
2019-02-04T00:37:20.017Z,32.40
2019-02-04T00:39:48.820Z,31.47
2019-02-04T00:42:17.656Z,32.20
2019-02-04T00:44:46.466Z,28.67
2019-02-04T00:47:15.275Z,35.17
2019-02-04T00:49:45.483Z,37.63
2019-02-04T00:52:14.284Z,42.07
2019-02-04T00:54:43.099Z,48.20
2019-02-04T00:57:11.941Z,46.70
2019-02-04T00:59:40.748Z,42.37
2019-02-04T01:02:09.578Z,43.63
2019-02-04T01:04:38.781Z,42.57
2019-02-04T01:07:07.975Z,39.67
2019-02-04T01:09:36.789Z,42.77
2019-02-04T01:12:05.649Z,40.00
2019-02-04T01:14:34.526Z,37.63
2019-02-04T01:17:03.884Z,37.87
2019-02-04T01:19:32.857Z,34.73
2019-02-04T01:22:01.656Z,34.27
2019-02-04T01:24:31.525Z,33.73
2019-02-04T01:29:30.718Z,32.60
2019-02-04T01:32:00.068Z,33.07
2019-02-04T01:34:28.937Z,32.67
2019-02-04T01:36:57.829Z,32.57
2019-02-04T01:39:26.639Z,33.43
2019-02-04T01:41:55.439Z,33.90
2019-02-04T01:44:24.354Z,31.43
2019-02-04T01:46:54.613Z,31.60
2019-02-04T01:49:23.413Z,28.93
2019-02-04T01:51:52.252Z,30.53
2019-02-04T01:54:21.060Z,28.03
2019-02-04T01:56:49.882Z,28.13
2019-02-04T01:59:18.711Z,30.33
2019-02-04T02:01:48.012Z,30.00
2019-02-04T02:04:16.827Z,29.57
2019-02-04T02:06:45.637Z,26.97
2019-02-04T02:09:16.124Z,22.93
2019-02-04T02:11:44.943Z,25.43
2019-02-04T02:14:13.842Z,24.60
2019-02-04T02:16:43.920Z,26.77
2019-02-04T02:19:12.733Z,22.10
2019-02-04T02:21:41.530Z,25.73
2019-02-04T02:24:10.372Z,24.27
2019-02-04T02:26:39.197Z,30.07
2019-02-04T02:29:08.004Z,30.77
2019-02-04T02:31:36.835Z,31.30
2019-02-04T02:34:05.652Z,31.93
2019-02-04T02:36:34.466Z,31.90
2019-02-04T02:39:04.994Z,32.60
2019-02-04T02:41:35.119Z,35.07
2019-02-04T02:44:04.011Z,36.23
2019-02-04T02:46:32.893Z,33.87
2019-02-04T02:49:01.711Z,31.43
2019-02-04T02:51:30.522Z,35.43
2019-02-04T02:53:59.339Z,35.77
2019-02-04T02:56:28.159Z,32.43
2019-02-04T02:58:56.971Z,30.87
2019-02-04T03:01:25.810Z,32.17
2019-02-04T03:03:54.683Z,35.40
2019-02-04T03:06:23.590Z,33.30
2019-02-04T03:08:52.407Z,30.03
2019-02-04T03:11:21.235Z,29.87
2019-02-04T03:13:50.043Z,27.53
2019-02-04T03:16:18.858Z,31.20
2019-02-04T03:18:47.697Z,29.80
2019-02-04T03:21:16.606Z,30.80
2019-02-04T03:23:45.500Z,29.13
2019-02-04T03:26:14.314Z,32.13
2019-02-04T03:28:43.196Z,32.30
2019-02-04T03:31:12.001Z,30.97
2019-02-04T03:33:40.888Z,30.87
2019-02-04T03:36:09.710Z,34.70
2019-02-04T03:38:38.530Z,29.20
2019-02-04T03:41:07.363Z,30.13
2019-02-04T03:43:36.206Z,29.07
2019-02-04T03:46:05.022Z,29.60
2019-02-04T03:48:33.942Z,29.13
2019-02-04T03:51:02.803Z,30.43
2019-02-04T03:53:31.688Z,29.03
2019-02-04T03:56:00.496Z,29.20
2019-02-04T03:58:29.324Z,33.93
2019-02-04T04:00:58.127Z,36.50
2019-02-04T04:03:26.960Z,32.93
2019-02-04T04:05:55.792Z,30.23
2019-02-04T04:08:25.165Z,32.33
2019-02-04T04:10:53.984Z,29.10
2019-02-04T04:13:22.815Z,29.77
2019-02-04T04:15:51.701Z,30.93
2019-02-04T04:18:20.601Z,30.37
2019-02-04T04:20:49.407Z,30.90
2019-02-04T04:23:18.281Z,30.23
2019-02-04T04:25:47.161Z,29.47
2019-02-04T04:28:15.972Z,27.23
2019-02-04T04:30:44.788Z,23.53
2019-02-04T04:33:13.639Z,29.33
2019-02-04T04:35:42.468Z,29.77
2019-02-04T04:38:11.302Z,28.90
2019-02-04T04:40:41.180Z,28.00
2019-02-04T04:43:09.988Z,27.23
2019-02-04T04:45:38.913Z,29.67
2019-02-04T04:48:07.724Z,28.30
2019-02-04T04:50:36.581Z,30.23
2019-02-04T04:53:05.375Z,32.17
2019-02-04T04:55:34.185Z,27.60
2019-02-04T04:58:03.002Z,32.33
2019-02-04T05:00:31.859Z,26.30
2019-02-04T05:03:00.801Z,26.30
2019-02-04T05:05:29.831Z,30.90
2019-02-04T05:07:58.663Z,33.30
2019-02-04T05:10:27.480Z,30.23
2019-02-04T05:12:56.330Z,27.23
2019-02-04T05:15:26.003Z,25.80
2019-02-04T05:17:54.818Z,31.17
2019-02-04T05:20:23.688Z,30.93
2019-02-04T05:22:52.545Z,31.37
2019-02-04T05:25:21.353Z,27.70
2019-02-04T05:27:50.178Z,28.60
2019-02-04T05:30:22.824Z,29.90
2019-02-04T05:32:51.633Z,26.77
2019-02-04T05:35:20.449Z,29.30
2019-02-04T05:37:49.363Z,30.23
2019-02-04T05:40:18.181Z,29.67
2019-02-04T05:42:47.265Z,29.50
2019-02-04T05:45:16.980Z,31.20
2019-02-04T05:47:45.854Z,31.57
2019-02-04T05:50:17.209Z,29.63
2019-02-04T05:52:46.025Z,28.47
2019-02-04T05:55:15.102Z,29.87
2019-02-04T05:57:44.084Z,30.73
2019-02-04T06:00:14.312Z,31.10
2019-02-04T06:02:43.102Z,34.17
2019-02-04T06:05:12.380Z,32.97
2019-02-04T06:07:41.226Z,28.50
2019-02-04T06:10:10.530Z,29.00
2019-02-04T06:12:39.337Z,31.60
2019-02-04T06:15:09.627Z,32.50
2019-02-04T06:17:38.432Z,30.87
2019-02-04T06:20:08.870Z,28.10
2019-02-04T06:22:37.709Z,27.67
2019-02-04T06:25:06.591Z,28.30
2019-02-04T06:27:35.400Z,27.73
2019-02-04T06:30:05.985Z,29.07
2019-02-04T06:32:34.916Z,28.47
2019-02-04T06:35:04.317Z,27.67
2019-02-04T06:37:33.208Z,27.43
2019-02-04T06:40:02.465Z,28.53
2019-02-04T06:42:31.401Z,25.43
2019-02-04T06:45:00.311Z,31.30
2019-02-04T06:47:30.220Z,27.80
2019-02-04T06:49:59.164Z,27.20
2019-02-04T06:52:27.968Z,30.87
2019-02-04T06:54:57.153Z,30.40
2019-02-04T06:57:25.999Z,30.40
2019-02-04T06:59:54.807Z,29.23
2019-02-04T07:02:23.613Z,27.90
2019-02-04T07:04:52.481Z,29.07
2019-02-04T07:07:21.281Z,28.07
2019-02-04T07:09:50.099Z,29.50
2019-02-04T07:12:18.943Z,25.90
2019-02-04T07:14:47.752Z,27.37
2019-02-04T07:17:16.559Z,32.47
2019-02-04T07:19:45.412Z,27.67
2019-02-04T07:22:14.247Z,29.17
2019-02-04T07:24:43.309Z,25.10
2019-02-04T07:27:12.238Z,25.87
2019-02-04T07:29:41.051Z,25.80
2019-02-04T07:32:09.893Z,31.23
2019-02-04T07:34:38.796Z,32.83
2019-02-04T07:37:07.602Z,29.10
2019-02-04T07:39:36.487Z,32.80
2019-02-04T07:42:05.506Z,37.20
2019-02-04T07:44:34.347Z,33.40
2019-02-04T07:47:03.249Z,33.73
2019-02-04T07:49:35.312Z,31.13
2019-02-04T07:52:02.634Z,35.80
2019-02-04T07:54:31.442Z,38.60
2019-02-04T07:57:00.731Z,34.43
2019-02-04T07:59:29.540Z,30.03
2019-02-04T08:01:58.355Z,31.17
2019-02-04T08:04:27.178Z,35.53
2019-02-04T08:06:56.004Z,32.50
2019-02-04T08:09:24.857Z,26.43
2019-02-04T08:11:54.002Z,31.57
2019-02-04T08:14:22.892Z,35.50
2019-02-04T08:16:51.717Z,29.87
2019-02-04T08:19:20.522Z,31.37
2019-02-04T08:21:49.462Z,32.33
2019-02-04T08:24:18.441Z,30.73
2019-02-04T08:26:47.724Z,32.63
2019-02-04T08:29:16.567Z,30.60
2019-02-04T08:31:45.392Z,29.47
2019-02-04T08:34:14.206Z,27.93
2019-02-04T08:36:46.071Z,28.83
2019-02-04T08:39:13.583Z,28.83
2019-02-04T08:41:42.781Z,26.57
2019-02-04T08:44:11.619Z,30.43
2019-02-04T08:46:40.510Z,32.67
2019-02-04T08:49:09.321Z,28.23
2019-02-04T08:51:38.161Z,28.93
2019-02-04T08:54:07.045Z,28.13
2019-02-04T08:56:35.857Z,27.40
2019-02-04T08:59:04.967Z,26.00
2019-02-04T09:01:33.847Z,26.67
2019-02-04T09:04:02.665Z,27.60
2019-02-04T09:06:31.567Z,31.77
2019-02-04T09:09:00.513Z,27.07
2019-02-04T09:11:29.995Z,27.27
2019-02-04T09:13:59.279Z,26.73
2019-02-04T09:16:28.084Z,32.27
2019-02-04T09:18:57.191Z,25.93
2019-02-04T09:21:26.024Z,27.03
2019-02-04T09:23:54.907Z,28.93
2019-02-04T09:26:23.718Z,24.97
2019-02-04T09:28:52.601Z,24.77
2019-02-04T09:31:21.411Z,25.77
2019-02-04T09:33:50.309Z,26.50
2019-02-04T09:36:19.117Z,25.70
2019-02-04T09:38:47.929Z,25.90
2019-02-04T09:41:16.910Z,18.70
2019-02-04T09:43:45.728Z,20.40
2019-02-04T09:46:14.895Z,24.33
2019-02-04T09:48:43.808Z,23.60
2019-02-04T09:51:12.612Z,21.97
2019-02-04T09:53:41.426Z,22.07
2019-02-04T09:56:10.326Z,25.07
2019-02-04T09:58:39.133Z,24.60
2019-02-04T10:01:08.027Z,26.73
2019-02-04T10:03:36.922Z,25.87
2019-02-04T10:06:05.743Z,24.73
2019-02-04T10:08:34.545Z,25.27
2019-02-04T10:11:04.420Z,24.83
2019-02-04T10:13:33.293Z,23.53
2019-02-04T10:16:02.572Z,22.50
2019-02-04T10:18:31.504Z,26.23
2019-02-04T10:21:00.419Z,25.80
2019-02-04T10:23:29.335Z,29.67
2019-02-04T10:25:58.235Z,32.67
2019-02-04T10:28:27.199Z,26.30
2019-02-04T10:30:56.544Z,29.83
2019-02-04T10:33:25.524Z,29.77
2019-02-04T10:35:54.443Z,27.70
2019-02-04T10:38:23.291Z,26.10
2019-02-04T10:40:52.258Z,27.63
2019-02-04T10:43:21.384Z,25.73
2019-02-04T10:45:50.526Z,25.27
2019-02-04T10:48:19.455Z,27.63
2019-02-04T10:50:48.323Z,27.83
2019-02-04T10:53:17.218Z,23.17
2019-02-04T10:55:46.089Z,23.77
2019-02-04T10:58:15.294Z,27.33
2019-02-04T11:00:44.471Z,22.37
2019-02-04T11:03:13.375Z,22.23
2019-02-04T11:05:42.758Z,23.70
2019-02-04T11:08:12.530Z,21.57
2019-02-04T11:10:41.407Z,19.70
2019-02-04T11:13:11.205Z,23.07
2019-02-04T11:15:40.425Z,23.50
2019-02-04T11:18:09.425Z,22.07
2019-02-04T11:20:38.427Z,17.47
2019-02-04T11:23:07.643Z,24.77
2019-02-04T11:25:36.486Z,22.27
2019-02-04T11:28:06.063Z,19.93
2019-02-04T11:30:36.904Z,21.80
2019-02-04T11:33:05.788Z,21.73
2019-02-04T11:35:34.671Z,20.43
2019-02-04T11:38:03.551Z,22.43
2019-02-04T11:40:33.494Z,21.73
2019-02-04T11:43:02.347Z,22.93
2019-02-04T11:45:31.624Z,20.97
2019-02-04T11:48:00.598Z,21.10
2019-02-04T11:50:29.478Z,23.40
2019-02-04T11:52:58.299Z,21.73
2019-02-04T11:55:27.108Z,23.63
2019-02-04T11:57:56.044Z,23.27
2019-02-04T12:00:26.510Z,23.50
2019-02-04T12:02:55.768Z,20.10
2019-02-04T12:05:24.575Z,20.13
2019-02-04T12:07:53.434Z,20.43
2019-02-04T12:10:24.042Z,21.80
2019-02-04T12:12:53.123Z,19.80
2019-02-04T12:15:22.494Z,21.60
2019-02-04T12:17:51.298Z,20.10
2019-02-04T12:20:20.105Z,24.17
2019-02-04T12:22:49.011Z,21.60
2019-02-04T12:25:19.200Z,18.80
2019-02-04T12:27:49.057Z,19.33
2019-02-04T12:30:31.395Z,22.23
2019-02-04T12:33:00.675Z,19.67
2019-02-04T12:35:29.549Z,23.10
2019-02-04T12:37:58.545Z,20.13
2019-02-04T12:40:27.343Z,23.37
2019-02-04T12:42:56.166Z,23.10
2019-02-04T12:45:32.794Z,26.07
2019-02-04T12:48:01.588Z,24.67
2019-02-04T12:50:30.403Z,23.87
2019-02-04T12:52:59.305Z,23.90
2019-02-04T12:55:29.365Z,22.80
2019-02-04T12:57:59.142Z,22.03
2019-02-04T13:00:28.945Z,22.43
2019-02-04T13:02:58.901Z,21.57
2019-02-04T13:05:36.075Z,20.07
2019-02-04T13:08:06.421Z,24.57
2019-02-04T13:10:35.272Z,20.40
2019-02-04T13:13:04.488Z,19.57
2019-02-04T13:15:33.292Z,22.77
2019-02-04T13:18:02.257Z,26.63
2019-02-04T13:20:31.183Z,25.70
2019-02-04T13:23:00.358Z,23.87
2019-02-04T13:25:29.736Z,27.87
2019-02-04T13:27:58.563Z,26.23
2019-02-04T13:30:28.063Z,26.73
2019-02-04T13:32:56.874Z,25.03
2019-02-04T13:35:25.754Z,23.10
2019-02-04T13:37:54.957Z,22.90
2019-02-04T13:40:25.456Z,24.07
2019-02-04T13:42:54.367Z,24.30
2019-02-04T13:45:23.240Z,23.77
2019-02-04T13:47:52.690Z,25.07
2019-02-04T13:50:22.112Z,22.53
2019-02-04T13:52:51.554Z,28.77
2019-02-04T13:55:22.102Z,26.47
2019-02-04T13:57:50.987Z,27.97
2019-02-04T14:00:19.871Z,23.20
2019-02-04T14:02:58.811Z,27.60
2019-02-04T14:05:19.394Z,22.50
2019-02-04T14:07:48.194Z,24.10
2019-02-04T14:10:18.175Z,22.50
2019-02-04T14:12:47.083Z,23.47
2019-02-04T14:15:16.259Z,24.63
2019-02-04T14:17:45.052Z,22.13
2019-02-04T14:20:15.546Z,22.40
2019-02-04T14:22:44.505Z,22.20
2019-02-04T14:25:13.393Z,23.47
2019-02-04T14:27:42.585Z,22.60
2019-02-04T14:30:22.289Z,23.57
2019-02-04T14:32:51.499Z,25.40
2019-02-04T14:35:20.303Z,20.50
2019-02-04T14:37:49.107Z,22.63
2019-02-04T14:40:18.987Z,24.50
2019-02-04T14:42:49.669Z,25.57
2019-02-04T14:45:35.397Z,24.43
2019-02-04T14:48:08.636Z,20.57
2019-02-04T14:50:39.123Z,22.03
2019-02-04T14:53:12.281Z,22.17
2019-02-04T14:55:48.705Z,23.83
2019-02-04T14:58:21.924Z,24.80
2019-02-04T15:00:55.165Z,24.67
2019-02-04T15:03:27.311Z,25.17
2019-02-04T15:06:01.356Z,24.63
2019-02-04T15:08:48.100Z,22.90
2019-02-04T15:11:21.263Z,21.63
2019-02-04T15:13:54.426Z,23.00
2019-02-04T15:16:24.900Z,20.17
2019-02-04T15:19:01.458Z,27.57
2019-02-04T15:21:46.221Z,23.40
2019-02-04T15:24:19.334Z,22.17
2019-02-04T15:27:01.628Z,23.10
2019-02-04T15:29:32.064Z,23.53
2019-02-04T15:32:08.402Z,23.57
2019-02-04T15:34:41.585Z,23.13
2019-02-04T15:37:21.134Z,23.90
2019-02-04T15:40:00.351Z,25.27
2019-02-04T15:42:36.581Z,27.67
2019-02-04T15:45:22.102Z,24.23
2019-02-04T15:47:52.630Z,25.43
2019-02-04T15:50:23.133Z,29.07
2019-02-04T15:52:51.950Z,26.17
2019-02-04T15:55:20.786Z,25.70
2019-02-04T15:57:49.663Z,27.17
2019-02-04T16:00:18.479Z,26.57
2019-02-04T16:02:47.484Z,28.83
2019-02-04T16:05:16.276Z,28.83
2019-02-04T16:07:45.075Z,35.53
2019-02-04T16:10:15.105Z,29.63
2019-02-04T16:12:43.981Z,29.77
2019-02-04T16:15:13.753Z,25.93
2019-02-04T16:17:42.648Z,30.63
2019-02-04T16:20:15.601Z,29.43
2019-02-04T16:22:44.504Z,32.97
2019-02-04T16:25:13.891Z,30.00
2019-02-04T16:27:42.689Z,31.57
2019-02-04T16:30:13.151Z,32.87
2019-02-04T16:32:41.975Z,32.60
2019-02-04T16:35:12.820Z,31.80
2019-02-04T16:37:41.627Z,30.97
2019-02-04T16:40:12.103Z,30.20
2019-02-04T16:42:40.980Z,34.10
2019-02-04T16:45:11.485Z,32.53
2019-02-04T16:47:40.325Z,33.87
2019-02-04T16:50:11.243Z,33.47
2019-02-04T16:52:40.121Z,32.77
2019-02-04T16:55:09.045Z,29.77
2019-02-04T16:57:37.920Z,33.47
2019-02-04T17:00:08.624Z,31.73
2019-02-04T17:02:37.500Z,30.67
2019-02-04T17:05:08.227Z,30.97
2019-02-04T17:07:37.195Z,32.67
2019-02-04T17:10:07.803Z,30.57
2019-02-04T17:12:36.680Z,31.13
2019-02-04T17:15:06.539Z,29.20
2019-02-04T17:17:35.513Z,30.13
2019-02-04T17:20:06.406Z,31.60
2019-02-04T17:22:35.414Z,32.93
2019-02-04T17:25:05.692Z,31.07
2019-02-04T17:27:34.565Z,33.40
2019-02-04T17:30:04.954Z,32.23
2019-02-04T17:32:33.992Z,32.57
2019-02-04T17:35:02.796Z,31.63
2019-02-04T17:37:31.686Z,36.37
2019-02-04T17:40:00.484Z,31.33
2019-02-04T17:42:29.299Z,34.83
2019-02-04T17:44:58.126Z,36.17
2019-02-04T17:47:27.008Z,34.20
2019-02-04T17:49:55.823Z,32.33
2019-02-04T17:52:24.694Z,32.83
2019-02-04T17:54:53.564Z,33.73
2019-02-04T17:57:22.449Z,34.37
2019-02-04T17:59:51.296Z,35.43
2019-02-04T18:02:20.109Z,31.83
2019-02-04T18:04:49.162Z,38.23
2019-02-04T18:07:20.549Z,35.40
2019-02-04T18:09:48.509Z,35.07
2019-02-04T18:12:17.320Z,32.60
2019-02-04T18:14:46.151Z,36.07
2019-02-04T18:17:14.955Z,38.53
2019-02-04T18:19:44.001Z,41.07
2019-02-04T18:22:14.079Z,35.47
2019-02-04T18:24:42.911Z,34.23
2019-02-04T18:27:11.773Z,33.40
2019-02-04T18:29:40.721Z,36.27
2019-02-04T18:32:11.425Z,37.63
2019-02-04T18:34:40.236Z,36.43
2019-02-04T18:37:09.436Z,37.33
2019-02-04T18:39:38.246Z,37.73
2019-02-04T18:42:07.079Z,37.23
2019-02-04T18:44:36.232Z,38.40
2019-02-04T18:47:05.119Z,37.93
2019-02-04T18:49:33.947Z,36.23
2019-02-04T18:52:02.757Z,38.10
2019-02-04T18:54:32.002Z,38.47
2019-02-04T18:57:00.890Z,36.37
2019-02-04T18:59:29.776Z,34.33
2019-02-04T19:01:58.595Z,35.77
2019-02-04T19:04:27.442Z,37.30
2019-02-04T19:06:56.251Z,36.53
2019-02-04T19:09:25.174Z,35.10
2019-02-04T19:11:55.580Z,39.70
2019-02-04T19:14:24.512Z,34.93
2019-02-04T19:16:53.724Z,36.50
2019-02-04T19:19:22.529Z,36.97
2019-02-04T19:21:51.333Z,43.30
2019-02-04T19:24:20.239Z,42.13
2019-02-04T19:26:49.116Z,37.77
2019-02-04T19:29:17.991Z,36.83
2019-02-04T19:31:47.283Z,35.23
2019-02-04T19:34:17.202Z,37.40
2019-02-04T19:36:46.068Z,35.57
2019-02-04T19:39:14.995Z,38.73
2019-02-04T19:41:43.860Z,37.37
2019-02-04T19:44:12.674Z,35.00
2019-02-04T19:46:42.013Z,40.43
2019-02-04T19:49:10.921Z,40.93
2019-02-04T19:51:39.873Z,40.93
2019-02-04T19:54:08.705Z,40.80
2019-02-04T19:56:37.522Z,37.87
2019-02-04T19:59:06.422Z,43.63
2019-02-04T20:01:35.405Z,37.27
2019-02-04T20:04:04.246Z,41.13
2019-02-04T20:06:33.140Z,38.87
2019-02-04T20:09:05.122Z,38.13
2019-02-04T20:11:34.197Z,38.17
2019-02-04T20:14:03.030Z,39.37
2019-02-04T20:16:32.057Z,39.80
2019-02-04T20:19:00.960Z,42.13
2019-02-04T20:21:29.847Z,40.07
2019-02-04T20:23:58.709Z,40.27
2019-02-04T20:26:27.588Z,36.57
2019-02-04T20:28:59.458Z,39.57
2019-02-04T20:31:28.444Z,40.33
2019-02-04T20:33:57.253Z,41.20
2019-02-04T20:36:26.147Z,37.63
2019-02-04T20:38:55.020Z,40.43
2019-02-04T20:41:24.017Z,44.60
2019-02-04T20:43:52.871Z,43.13
2019-02-04T20:46:21.716Z,40.13
2019-02-04T20:48:50.811Z,46.30
2019-02-04T20:51:19.774Z,40.57
2019-02-04T20:53:48.891Z,41.50
2019-02-04T20:56:17.729Z,41.17
2019-02-04T20:58:46.611Z,39.47
2019-02-04T21:01:15.501Z,38.97
2019-02-04T21:03:44.610Z,43.77
2019-02-04T21:06:13.484Z,40.77
2019-02-04T21:08:42.474Z,43.13
2019-02-04T21:11:11.352Z,38.63
2019-02-04T21:13:40.172Z,36.50
2019-02-04T21:16:09.071Z,41.33
2019-02-04T21:18:38.426Z,40.67
2019-02-04T21:21:07.262Z,42.57
2019-02-04T21:23:36.283Z,42.17
2019-02-04T21:26:06.990Z,48.63
2019-02-04T21:28:35.701Z,44.80
2019-02-04T21:31:04.700Z,38.33
2019-02-04T21:33:35.067Z,41.90
2019-02-04T21:36:04.050Z,45.87
2019-02-04T21:38:32.972Z,41.33
2019-02-04T21:41:01.855Z,45.83
2019-02-04T21:43:32.106Z,41.77
2019-02-04T21:46:00.936Z,40.80
2019-02-04T21:48:30.088Z,44.03
2019-02-04T21:50:58.970Z,40.47
2019-02-04T21:53:27.869Z,38.97
2019-02-04T21:55:56.727Z,39.50
2019-02-04T21:58:25.688Z,40.27
2019-02-04T22:00:54.618Z,38.57
2019-02-04T22:03:23.606Z,40.03
2019-02-04T22:05:52.661Z,40.73
2019-02-04T22:08:23.135Z,41.60
2019-02-04T22:10:52.541Z,44.07
2019-02-04T22:13:21.432Z,43.70
2019-02-04T22:15:50.913Z,38.53
2019-02-04T22:18:19.862Z,41.20
2019-02-04T22:20:49.041Z,43.20
2019-02-04T22:23:17.904Z,44.13
2019-02-04T22:25:47.257Z,40.93
2019-02-04T22:28:16.095Z,42.37
2019-02-04T22:30:45.277Z,42.73
2019-02-04T22:33:14.161Z,40.83
2019-02-04T22:35:43.283Z,40.87
2019-02-04T22:38:12.105Z,43.30
2019-02-04T22:40:40.973Z,40.53
2019-02-04T22:43:09.812Z,44.87
2019-02-04T22:45:38.621Z,41.83
2019-02-04T22:48:07.424Z,42.63
2019-02-04T22:50:36.254Z,44.30
2019-02-04T22:53:05.068Z,46.00
2019-02-04T22:55:33.878Z,44.17
2019-02-04T22:58:02.732Z,47.10
2019-02-04T23:00:40.344Z,46.13
2019-02-04T23:03:10.142Z,45.80
2019-02-04T23:05:39.073Z,41.10
2019-02-04T23:08:07.976Z,45.03
2019-02-04T23:10:36.868Z,47.10
2019-02-04T23:13:05.952Z,42.23
2019-02-04T23:15:34.765Z,42.40
2019-02-04T23:18:05.045Z,43.73
2019-02-04T23:20:33.959Z,41.63
2019-02-04T23:23:02.764Z,42.00
2019-02-04T23:25:42.648Z,43.73
2019-02-04T23:28:02.232Z,39.40
2019-02-04T23:30:31.204Z,41.30
2019-02-04T23:33:00.046Z,38.53
2019-02-04T23:35:28.857Z,43.10
2019-02-04T23:37:57.681Z,43.67
2019-02-04T23:40:27.642Z,41.60
2019-02-04T23:42:56.444Z,40.13
2019-02-04T23:45:25.281Z,41.53
2019-02-04T23:47:54.098Z,45.20
2019-02-04T23:50:22.932Z,41.80
2019-02-04T23:52:51.732Z,41.83
2019-02-04T23:55:20.583Z,46.20
2019-02-04T23:57:49.463Z,40.50
